createdAt,value
2022-08-07T00:02:35.523Z,2.60
2022-08-07T00:04:09.281Z,2.00
2022-08-07T00:06:51.141Z,2.50
2022-08-07T00:09:22.186Z,2.20
2022-08-07T00:11:55.959Z,2.20
2022-08-07T00:14:31.342Z,2.30
2022-08-07T00:17:00.348Z,2.37
2022-08-07T00:20:00.225Z,2.20
2022-08-07T00:22:24.855Z,2.40
2022-08-07T00:25:05.183Z,1.90
2022-08-07T00:27:53.512Z,2.33
2022-08-07T00:30:28.091Z,2.13
2022-08-07T00:32:57.645Z,2.30
2022-08-07T00:35:30.091Z,2.93
2022-08-07T00:37:59.227Z,2.17
2022-08-07T00:40:39.916Z,2.43
2022-08-07T00:43:59.261Z,2.33
2022-08-07T00:46:13.225Z,2.20
2022-08-07T00:48:42.800Z,2.20
2022-08-07T00:51:11.786Z,2.20
2022-08-07T00:53:55.053Z,2.70
2022-08-07T00:56:30.267Z,2.30
2022-08-07T00:59:03.605Z,2.07
2022-08-07T01:01:44.254Z,2.37
2022-08-07T01:04:24.542Z,2.47
2022-08-07T01:06:53.811Z,2.23
2022-08-07T01:10:03.852Z,2.00
2022-08-07T01:12:30.197Z,2.10
2022-08-07T01:15:03.770Z,2.10
2022-08-07T01:17:33.425Z,2.37
2022-08-07T01:20:07.913Z,2.30
2022-08-07T01:22:47.025Z,2.20
2022-08-07T01:25:53.500Z,2.10
2022-08-07T01:28:16.147Z,2.27
2022-08-07T01:30:46.031Z,1.73
2022-08-07T01:33:17.149Z,2.20
2022-08-07T01:35:54.307Z,2.20
2022-08-07T01:38:38.304Z,2.03
2022-08-07T01:41:26.191Z,2.53
2022-08-07T01:43:58.216Z,2.20
2022-08-07T01:46:27.337Z,2.00
2022-08-07T01:48:56.101Z,1.83
2022-08-07T01:52:02.656Z,2.40
2022-08-07T01:54:33.310Z,2.23
2022-08-07T01:57:09.608Z,1.97
2022-08-07T01:59:56.385Z,2.00
2022-08-07T02:03:11.466Z,2.20
2022-08-07T02:05:47.804Z,2.27
2022-08-07T02:08:19.675Z,2.00
2022-08-07T02:10:58.135Z,2.13
2022-08-07T02:13:58.245Z,2.27
2022-08-07T02:16:32.875Z,2.00
2022-08-07T02:19:05.489Z,2.20
2022-08-07T02:21:55.951Z,2.27
2022-08-07T02:24:26.200Z,2.30
2022-08-07T02:27:01.195Z,2.20
2022-08-07T02:29:31.901Z,2.00
2022-08-07T02:32:01.459Z,1.97
2022-08-07T02:34:29.967Z,1.90
2022-08-07T02:37:03.219Z,2.03
2022-08-07T02:39:43.362Z,2.00
2022-08-07T02:42:19.105Z,2.30
2022-08-07T02:44:52.602Z,2.50
2022-08-07T02:47:23.973Z,2.60
2022-08-07T02:50:03.989Z,2.43
2022-08-07T02:52:40.782Z,2.50
2022-08-07T02:55:28.394Z,2.23
2022-08-07T02:58:11.838Z,2.33
2022-08-07T03:00:46.828Z,2.10
2022-08-07T03:03:22.706Z,2.40
2022-08-07T03:05:54.680Z,2.50
2022-08-07T03:08:29.197Z,2.50
2022-08-07T03:11:00.567Z,2.20
2022-08-07T03:13:39.303Z,2.43
2022-08-07T03:16:22.844Z,2.10
2022-08-07T03:18:56.986Z,2.53
2022-08-07T03:21:25.631Z,2.73
2022-08-07T03:24:19.560Z,2.40
2022-08-07T03:26:51.139Z,2.53
2022-08-07T03:29:29.973Z,2.80
2022-08-07T03:32:01.141Z,2.53
2022-08-07T03:34:29.838Z,2.63
2022-08-07T03:37:01.523Z,2.23
2022-08-07T03:39:59.637Z,2.40
2022-08-07T03:42:31.965Z,2.23
2022-08-07T03:45:01.882Z,2.53
2022-08-07T03:47:47.965Z,2.30
2022-08-07T03:50:25.126Z,2.50
2022-08-07T03:52:58.721Z,2.23
2022-08-07T03:55:57.618Z,2.40
2022-08-07T03:58:18.015Z,2.20
2022-08-07T04:01:13.842Z,2.40
2022-08-07T04:03:53.722Z,2.40
2022-08-07T04:06:37.208Z,2.40
2022-08-07T04:09:15.310Z,2.30
2022-08-07T04:12:23.723Z,2.50
2022-08-07T04:14:43.672Z,2.57
2022-08-07T04:17:21.066Z,2.23
2022-08-07T04:19:54.673Z,2.17
2022-08-07T04:22:29.664Z,2.47
2022-08-07T04:25:11.826Z,2.30
2022-08-07T04:27:44.402Z,2.73
2022-08-07T04:30:21.650Z,2.20
2022-08-07T04:33:15.692Z,2.10
2022-08-07T04:35:50.619Z,2.27
2022-08-07T04:38:23.310Z,2.27
2022-08-07T04:40:53.144Z,2.83
2022-08-07T04:44:09.644Z,2.47
2022-08-07T04:47:03.817Z,2.37
2022-08-07T04:49:47.621Z,2.30
2022-08-07T04:52:46.692Z,2.80
2022-08-07T04:58:11.959Z,2.47
2022-08-07T04:58:31.399Z,2.40
2022-08-07T05:01:18.011Z,2.33
2022-08-07T05:04:07.886Z,2.33
2022-08-07T05:06:51.205Z,2.27
2022-08-07T05:09:45.429Z,2.20
2022-08-07T05:12:26.909Z,2.40
2022-08-07T05:15:04.931Z,2.30
2022-08-07T05:17:52.969Z,2.63
2022-08-07T05:20:27.668Z,2.40
2022-08-07T05:23:03.009Z,2.03
2022-08-07T05:25:54.533Z,2.30
2022-08-07T05:28:26.681Z,2.50
2022-08-07T05:30:57.651Z,2.40
2022-08-07T05:33:28.916Z,2.80
2022-08-07T05:35:58.703Z,2.47
2022-08-07T05:39:00.107Z,2.57
2022-08-07T05:41:21.976Z,2.50
2022-08-07T05:44:08.448Z,2.40
2022-08-07T05:46:42.945Z,2.23
2022-08-07T05:49:14.316Z,2.30
2022-08-07T05:51:47.655Z,2.93
2022-08-07T05:54:30.623Z,2.40
2022-08-07T05:57:11.341Z,2.27
2022-08-07T05:59:57.359Z,2.17
2022-08-07T06:02:31.657Z,2.97
2022-08-07T06:05:07.147Z,2.50
2022-08-07T06:08:30.297Z,2.90
2022-08-07T06:10:28.678Z,2.63
2022-08-07T06:12:57.578Z,2.60
2022-08-07T06:15:38.521Z,2.00
2022-08-07T06:18:14.339Z,6.20
2022-08-07T06:20:51.127Z,5.33
2022-08-07T06:24:38.479Z,3.70
2022-08-07T06:26:27.590Z,3.33
2022-08-07T06:29:01.203Z,2.40
2022-08-07T06:31:46.857Z,2.77
2022-08-07T06:34:20.612Z,3.07
2022-08-07T06:36:51.790Z,3.20
2022-08-07T06:40:15.722Z,2.67
2022-08-07T06:42:22.636Z,2.40
2022-08-07T06:45:24.067Z,2.70
2022-08-07T06:47:59.287Z,2.37
2022-08-07T06:50:37.875Z,2.20
2022-08-07T06:53:49.272Z,2.50
2022-08-07T06:56:02.886Z,2.07
2022-08-07T06:58:40.595Z,2.37
2022-08-07T07:01:33.133Z,2.50
2022-08-07T07:04:32.232Z,2.00
2022-08-07T07:07:10.666Z,2.47
2022-08-07T07:09:48.917Z,2.33
2022-08-07T07:12:30.717Z,2.13
2022-08-07T07:15:03.819Z,2.53
2022-08-07T07:17:39.432Z,2.10
2022-08-07T07:20:18.219Z,2.23
2022-08-07T07:24:09.264Z,2.00
2022-08-07T07:26:34.858Z,1.83
2022-08-07T07:28:48.333Z,2.27
2022-08-07T07:31:24.968Z,2.40
2022-08-07T07:34:01.001Z,2.10
2022-08-07T07:36:32.594Z,2.17
2022-08-07T07:39:02.528Z,2.23
2022-08-07T07:41:50.425Z,2.17
2022-08-07T07:44:25.722Z,2.10
2022-08-07T07:47:02.189Z,2.20
2022-08-07T07:50:33.642Z,2.10
2022-08-07T07:52:31.307Z,2.80
2022-08-07T07:55:00.265Z,2.40
2022-08-07T07:57:51.608Z,2.33
2022-08-07T08:00:29.146Z,2.50
2022-08-07T08:03:08.121Z,2.03
2022-08-07T08:05:55.139Z,2.63
2022-08-07T08:08:35.776Z,2.67
2022-08-07T08:11:16.182Z,2.60
2022-08-07T08:13:57.447Z,1.90
2022-08-07T08:16:32.194Z,2.70
2022-08-07T08:19:18.151Z,2.70
2022-08-07T08:22:15.002Z,2.33
2022-08-07T08:25:18.295Z,2.53
2022-08-07T08:27:56.406Z,2.60
2022-08-07T08:30:26.922Z,2.20
2022-08-07T08:32:56.308Z,2.63
2022-08-07T08:35:28.706Z,2.50
2022-08-07T08:38:04.575Z,2.70
2022-08-07T08:40:48.064Z,2.27
2022-08-07T08:43:20.358Z,2.03
2022-08-07T08:46:07.997Z,2.30
2022-08-07T08:48:42.046Z,2.33
2022-08-07T08:51:26.197Z,2.50
2022-08-07T08:54:10.974Z,2.47
2022-08-07T08:56:47.674Z,2.53
2022-08-07T08:59:20.986Z,2.33
2022-08-07T09:01:58.411Z,2.10
2022-08-07T09:04:41.290Z,2.57
2022-08-07T09:07:24.402Z,2.03
2022-08-07T09:10:03.214Z,2.30
2022-08-07T09:12:56.362Z,2.40
2022-08-07T09:16:24.256Z,2.20
2022-08-07T09:18:36.765Z,1.87
2022-08-07T09:21:58.105Z,2.00
2022-08-07T09:24:31.146Z,2.23
2022-08-07T09:27:04.552Z,2.07
2022-08-07T09:30:04.373Z,2.23
2022-08-07T09:32:51.189Z,2.20
2022-08-07T09:36:05.246Z,2.10
2022-08-07T09:38:27.265Z,2.47
2022-08-07T09:41:08.402Z,2.30
2022-08-07T09:44:06.170Z,2.20
2022-08-07T09:47:51.765Z,1.93
2022-08-07T09:50:00.663Z,1.90
2022-08-07T09:52:44.098Z,2.23
2022-08-07T09:55:29.426Z,2.30
2022-08-07T09:58:42.314Z,1.90
2022-08-07T10:01:51.671Z,2.70
2022-08-07T10:04:32.802Z,2.63
2022-08-07T10:07:24.554Z,3.00
2022-08-07T10:10:21.310Z,1.87
2022-08-07T10:13:09.339Z,2.00
2022-08-07T10:15:54.837Z,2.30
2022-08-07T10:18:37.990Z,2.40
2022-08-07T10:22:12.633Z,2.07
2022-08-07T10:24:27.603Z,2.30
2022-08-07T10:27:10.320Z,2.23
2022-08-07T10:29:51.611Z,2.23
2022-08-07T10:32:52.881Z,2.37
2022-08-07T10:35:56.420Z,2.50
2022-08-07T10:38:35.845Z,2.10
2022-08-07T10:41:54.751Z,1.63
2022-08-07T10:44:19.228Z,2.10
2022-08-07T10:47:11.845Z,2.50
2022-08-07T10:49:51.230Z,1.80
2022-08-07T10:52:31.933Z,1.90
2022-08-07T10:55:27.133Z,2.30
2022-08-07T10:58:07.022Z,1.80
2022-08-07T11:00:50.672Z,2.00
2022-08-07T11:03:37.767Z,2.10
2022-08-07T11:06:26.894Z,1.93
2022-08-07T11:09:01.809Z,2.13
2022-08-07T11:11:36.117Z,2.50
2022-08-07T11:14:43.940Z,1.53
2022-08-07T11:17:12.783Z,2.07
2022-08-07T11:19:46.955Z,1.60
2022-08-07T11:22:32.299Z,2.07
2022-08-07T11:25:10.982Z,2.03
2022-08-07T11:28:02.494Z,2.20
2022-08-07T11:30:41.713Z,1.70
2022-08-07T11:33:58.730Z,2.27
2022-08-07T11:36:25.233Z,1.70
2022-08-07T11:39:19.513Z,1.50
2022-08-07T11:42:16.800Z,1.77
2022-08-07T11:44:57.563Z,1.70
2022-08-07T11:47:59.405Z,1.77
2022-08-07T11:50:57.801Z,1.90
2022-08-07T11:53:36.534Z,2.10
2022-08-07T11:56:26.414Z,1.80
2022-08-07T12:00:07.801Z,1.67
2022-08-07T12:02:04.591Z,1.60
2022-08-07T12:04:59.536Z,1.40
2022-08-07T12:07:39.280Z,1.67
2022-08-07T12:10:13.316Z,1.53
2022-08-07T12:12:47.392Z,2.10
2022-08-07T12:15:46.564Z,2.40
2022-08-07T12:18:15.978Z,1.80
2022-08-07T12:21:01.966Z,1.90
2022-08-07T12:24:07.673Z,1.77
2022-08-07T12:26:46.242Z,1.60
2022-08-07T12:29:29.390Z,1.50
2022-08-07T12:32:13.806Z,1.93
2022-08-07T12:34:49.427Z,1.50
2022-08-07T12:37:23.666Z,1.70
2022-08-07T12:39:58.735Z,1.70
2022-08-07T12:42:32.069Z,1.40
2022-08-07T12:45:07.180Z,1.87
2022-08-07T12:47:42.804Z,1.70
2022-08-07T12:50:33.752Z,2.20
2022-08-07T12:53:18.024Z,2.53
2022-08-07T12:56:02.925Z,1.87
2022-08-07T12:58:35.843Z,1.80
2022-08-07T13:01:13.774Z,2.13
2022-08-07T13:04:34.631Z,2.03
2022-08-07T13:08:11.914Z,1.70
2022-08-07T13:10:39.346Z,1.70
2022-08-07T13:13:47.326Z,1.87
2022-08-07T13:16:19.605Z,2.10
2022-08-07T13:18:57.211Z,1.93
2022-08-07T13:21:37.265Z,2.37
2022-08-07T13:24:25.790Z,1.77
2022-08-07T13:27:05.774Z,1.90
2022-08-07T13:29:42.402Z,2.03
2022-08-07T13:32:37.370Z,1.90
2022-08-07T13:35:09.483Z,1.80
2022-08-07T13:37:43.516Z,2.10
2022-08-07T13:40:41.788Z,1.80
2022-08-07T13:43:15.246Z,1.70
2022-08-07T13:46:11.859Z,2.10
2022-08-07T13:48:41.852Z,1.70
2022-08-07T13:51:28.392Z,1.60
2022-08-07T13:54:22.658Z,1.80
2022-08-07T13:56:59.599Z,1.60
2022-08-07T13:59:31.839Z,2.10
2022-08-07T14:02:08.523Z,1.90
2022-08-07T14:04:50.069Z,1.53
2022-08-07T14:07:23.030Z,1.83
2022-08-07T14:10:01.344Z,1.70
2022-08-07T14:12:53.976Z,1.90
2022-08-07T14:15:32.151Z,1.60
2022-08-07T14:18:16.085Z,1.30
2022-08-07T14:21:07.951Z,1.73
2022-08-07T14:24:00.629Z,1.97
2022-08-07T14:26:35.873Z,1.87
2022-08-07T14:30:02.637Z,1.50
2022-08-07T14:31:56.364Z,1.70
2022-08-07T14:34:29.878Z,2.00
2022-08-07T14:37:04.908Z,1.47
2022-08-07T14:40:18.105Z,1.80
2022-08-07T14:43:01.139Z,1.63
2022-08-07T14:45:46.704Z,1.73
2022-08-07T14:51:16.197Z,1.80
2022-08-07T14:54:05.851Z,1.80
2022-08-07T14:56:41.530Z,1.83
2022-08-07T14:59:13.700Z,1.53
2022-08-07T15:02:31.973Z,1.70
2022-08-07T15:07:52.322Z,1.57
2022-08-07T15:13:22.551Z,1.83
2022-08-07T15:15:58.245Z,1.70
2022-08-07T15:21:58.474Z,2.50
2022-08-07T15:25:15.377Z,2.10
2022-08-07T15:27:18.167Z,2.10
2022-08-07T15:30:08.495Z,1.77
2022-08-07T15:33:01.483Z,2.20
2022-08-07T15:38:31.019Z,1.90
2022-08-07T15:41:23.439Z,1.90
2022-08-07T15:44:01.837Z,2.50
2022-08-07T15:49:25.445Z,1.70
2022-08-07T15:52:13.851Z,2.23
2022-08-07T15:54:44.675Z,1.97
2022-08-07T15:57:40.012Z,2.07
2022-08-07T16:00:22.786Z,2.30
2022-08-07T16:03:03.670Z,2.07
2022-08-07T16:05:32.285Z,2.30
2022-08-07T16:08:31.348Z,2.10
2022-08-07T16:10:58.309Z,1.97
2022-08-07T16:13:58.765Z,2.00
2022-08-07T16:16:49.945Z,2.10
2022-08-07T16:19:42.668Z,2.20
2022-08-07T16:22:54.385Z,2.20
2022-08-07T16:25:54.859Z,2.10
2022-08-07T16:29:18.719Z,2.43
2022-08-07T16:31:51.753Z,2.53
2022-08-07T16:34:28.661Z,2.67
2022-08-07T16:38:06.298Z,2.30
2022-08-07T16:41:08.449Z,2.10
2022-08-07T16:44:05.552Z,2.70
2022-08-07T16:47:15.855Z,2.40
2022-08-07T16:50:27.148Z,2.57
2022-08-07T16:53:26.825Z,2.50
2022-08-07T16:55:55.593Z,2.87
2022-08-07T16:58:54.373Z,2.50
2022-08-07T17:01:34.609Z,2.63
2022-08-07T17:04:14.100Z,2.53
2022-08-07T17:07:02.843Z,2.43
2022-08-07T17:10:06.561Z,2.33
2022-08-07T17:12:44.042Z,3.10
2022-08-07T17:15:22.424Z,2.33
2022-08-07T17:18:19.123Z,2.43
2022-08-07T17:20:47.518Z,2.23
2022-08-07T17:23:46.148Z,2.80
2022-08-07T17:26:22.764Z,2.60
2022-08-07T17:29:05.724Z,2.70
2022-08-07T17:32:03.249Z,2.63
2022-08-07T17:34:57.181Z,2.97
2022-08-07T17:38:06.093Z,2.80
2022-08-07T17:40:30.646Z,2.90
2022-08-07T17:43:15.101Z,2.77
2022-08-07T17:45:56.103Z,2.80
2022-08-07T17:48:30.447Z,2.90
2022-08-07T17:51:02.422Z,3.10
2022-08-07T17:54:02.317Z,3.00
2022-08-07T17:56:32.461Z,2.97
2022-08-07T17:59:06.063Z,2.90
2022-08-07T18:01:48.393Z,2.80
2022-08-07T18:04:31.209Z,3.27
2022-08-07T18:07:20.480Z,3.20
2022-08-07T18:10:06.430Z,3.20
2022-08-07T18:13:09.992Z,3.10
2022-08-07T18:15:53.455Z,3.40
2022-08-07T18:18:46.371Z,3.63
2022-08-07T18:21:42.260Z,3.60
2022-08-07T18:24:07.495Z,3.93
2022-08-07T18:26:58.330Z,3.70
2022-08-07T18:30:05.571Z,4.20
2022-08-07T18:32:31.771Z,4.10
2022-08-07T18:35:15.775Z,4.10
2022-08-07T18:38:57.456Z,4.10
2022-08-07T18:41:09.044Z,4.43
2022-08-07T18:43:57.395Z,4.90
2022-08-07T18:46:36.825Z,3.83
2022-08-07T18:50:30.415Z,4.67
2022-08-07T18:52:37.752Z,4.70
2022-08-07T18:55:43.305Z,4.10
2022-08-07T18:58:23.889Z,4.50
2022-08-07T19:01:06.507Z,4.23
2022-08-07T19:03:44.697Z,4.70
2022-08-07T19:06:22.290Z,5.10
2022-08-07T19:09:09.458Z,5.40
2022-08-07T19:12:13.326Z,4.40
2022-08-07T19:14:52.112Z,4.73
2022-08-07T19:17:54.481Z,4.70
2022-08-07T19:20:29.912Z,4.63
2022-08-07T19:23:18.788Z,4.43
2022-08-07T19:26:23.163Z,3.93
2022-08-07T19:30:57.871Z,3.50
2022-08-07T19:32:05.398Z,4.03
2022-08-07T19:34:34.170Z,3.83
2022-08-07T19:37:17.334Z,4.70
2022-08-07T19:39:57.689Z,3.63
2022-08-07T19:42:40.458Z,4.20
2022-08-07T19:46:01.090Z,3.60
2022-08-07T19:48:03.857Z,4.13
2022-08-07T19:50:53.079Z,3.60
2022-08-07T19:54:33.485Z,4.40
2022-08-07T19:58:02.405Z,4.00
2022-08-07T19:59:13.547Z,4.20
2022-08-07T20:01:55.857Z,4.00
2022-08-07T20:04:31.303Z,4.30
2022-08-07T20:07:01.618Z,3.83
2022-08-07T20:10:37.774Z,3.90
2022-08-07T20:12:34.646Z,3.80
2022-08-07T20:15:09.675Z,4.17
2022-08-07T20:18:01.703Z,3.97
2022-08-07T20:20:32.830Z,3.90
2022-08-07T20:23:22.833Z,3.40
2022-08-07T20:25:57.667Z,3.47
2022-08-07T20:28:29.977Z,2.97
2022-08-07T20:30:59.222Z,3.80
2022-08-07T20:33:38.117Z,3.90
2022-08-07T20:36:08.772Z,3.50
2022-08-07T20:38:59.731Z,3.50
2022-08-07T20:41:34.055Z,3.80
2022-08-07T20:44:12.317Z,3.03
2022-08-07T20:46:43.928Z,3.07
2022-08-07T20:49:59.716Z,2.93
2022-08-07T20:52:16.461Z,4.17
2022-08-07T20:54:53.191Z,3.17
2022-08-07T20:57:28.170Z,3.20
2022-08-07T21:00:07.973Z,3.20
2022-08-07T21:02:57.960Z,3.10
2022-08-07T21:05:50.584Z,3.27
2022-08-07T21:08:36.335Z,3.40
2022-08-07T21:11:10.587Z,3.03
2022-08-07T21:13:57.529Z,2.93
2022-08-07T21:16:36.006Z,2.80
2022-08-07T21:19:09.106Z,3.00
2022-08-07T21:21:49.325Z,2.60
2022-08-07T21:24:30.683Z,3.07
2022-08-07T21:27:02.885Z,2.90
2022-08-07T21:29:52.831Z,3.40
2022-08-07T21:32:47.090Z,3.07
2022-08-07T21:35:16.828Z,3.60
2022-08-07T21:38:08.280Z,3.10
2022-08-07T21:40:43.044Z,2.97
2022-08-07T21:43:15.135Z,2.93
2022-08-07T21:46:08.651Z,2.90
2022-08-07T21:48:56.538Z,2.63
2022-08-07T21:51:54.498Z,2.90
2022-08-07T21:54:30.721Z,3.40
2022-08-07T21:57:15.971Z,2.70
2022-08-07T22:00:06.110Z,2.73
2022-08-07T22:02:42.789Z,3.17
2022-08-07T22:05:21.663Z,3.10
2022-08-07T22:08:05.169Z,3.03
2022-08-07T22:10:42.286Z,2.80
2022-08-07T22:13:14.248Z,2.60
2022-08-07T22:16:38.517Z,3.40
2022-08-07T22:18:40.893Z,3.43
2022-08-07T22:21:15.039Z,2.93
2022-08-07T22:23:45.730Z,2.80
2022-08-07T22:26:22.907Z,3.17
2022-08-07T22:28:59.055Z,2.30
2022-08-07T22:31:56.198Z,2.83
2022-08-07T22:34:29.040Z,3.77
2022-08-07T22:37:12.521Z,3.07
2022-08-07T22:39:53.024Z,3.00
2022-08-07T22:42:26.175Z,2.60
2022-08-07T22:45:02.251Z,2.70
2022-08-07T22:48:31.603Z,2.67
2022-08-07T22:51:12.628Z,2.77
2022-08-07T22:54:07.983Z,3.10
2022-08-07T22:56:48.636Z,2.50
2022-08-07T22:59:43.856Z,3.20
2022-08-07T23:02:27.609Z,2.27
2022-08-07T23:06:08.647Z,2.73
2022-08-07T23:08:30.259Z,2.40
2022-08-07T23:11:13.299Z,2.27
2022-08-07T23:14:10.878Z,2.63
2022-08-07T23:16:55.907Z,2.93
2022-08-07T23:19:59.819Z,2.20
2022-08-07T23:22:37.557Z,2.57
2022-08-07T23:25:22.209Z,2.67
2022-08-07T23:28:28.931Z,2.83
2022-08-07T23:31:13.834Z,2.40
2022-08-07T23:34:35.190Z,2.30
2022-08-07T23:37:17.662Z,2.20
2022-08-07T23:39:44.118Z,2.70
2022-08-07T23:42:24.387Z,2.37
2022-08-07T23:45:15.056Z,3.00
2022-08-07T23:48:11.993Z,2.30
2022-08-07T23:50:48.411Z,2.70
2022-08-07T23:53:51.361Z,2.80
2022-08-07T23:56:26.623Z,2.53
2022-08-07T23:59:10.951Z,2.37
